Time;durP1;ratioP1;P1;durP2;ratioP2;P2;SDS_P1;SDS_P2;PMS_P1;PMS_P2;Temp;Humidity;BMP_temperature;BMP_pressure;BME280_temperature;BME280_humidity;BME280_pressure;Samples;Min_cycle;Max_cycle;Signal;HPM_P1;HPM_P2
2021/12/01 00:00:41;;;;;;;4.50;2.40;;;;;;;8.12;100.00;100105.81;5026171;28;20472;-73
2021/12/01 00:03:07;;;;;;;3.47;1.90;;;;;;;8.06;100.00;100093.53;5025615;28;20037;-73
2021/12/01 00:05:33;;;;;;;4.97;2.40;;;;;;;8.01;100.00;100091.41;5026336;28;20026;-71
2021/12/01 00:07:59;;;;;;;6.28;2.97;;;;;;;8.04;100.00;100087.72;5035216;28;20048;-73
2021/12/01 00:10:28;;;;;;;2.85;2.15;;;;;;;8.05;100.00;100079.81;5029841;28;20142;-72
2021/12/01 00:12:54;;;;;;;5.03;2.33;;;;;;;8.03;100.00;100068.03;5038115;28;20094;-72
2021/12/01 00:15:20;;;;;;;5.88;2.55;;;;;;;8.04;100.00;100069.63;5027554;28;20478;-72
2021/12/01 00:17:47;;;;;;;4.10;2.83;;;;;;;8.00;100.00;100058.81;5029660;28;20052;-72
2021/12/01 00:20:15;;;;;;;7.72;2.65;;;;;;;8.06;100.00;100060.78;5031664;28;20399;-72
2021/12/01 00:22:42;;;;;;;3.95;2.50;;;;;;;7.98;100.00;100043.47;5037586;28;20037;-72
2021/12/01 00:25:10;;;;;;;3.33;2.45;;;;;;;8.01;100.00;100051.88;5027430;28;20033;-72
2021/12/01 00:27:36;;;;;;;2.92;2.38;;;;;;;7.99;100.00;100034.78;5023975;28;20065;-73
2021/12/01 00:30:04;;;;;;;6.03;3.10;;;;;;;7.97;100.00;100026.38;5031967;28;20056;-73
2021/12/01 00:32:30;;;;;;;4.85;2.25;;;;;;;7.97;100.00;100016.06;5018950;28;20488;-73
2021/12/01 00:34:58;;;;;;;5.57;3.38;;;;;;;7.96;100.00;100008.47;5029634;28;20037;-73
2021/12/01 00:37:23;;;;;;;7.25;2.75;;;;;;;8.00;100.00;99994.25;5026793;28;20104;-73
2021/12/01 00:39:49;;;;;;;3.45;2.42;;;;;;;7.94;100.00;100005.22;5028336;28;20113;-73
2021/12/01 00:42:14;;;;;;;4.80;2.17;;;;;;;7.99;100.00;99983.13;5027512;28;20566;-72
2021/12/01 00:44:46;;;;;;;6.88;2.30;;;;;;;7.90;100.00;99984.06;5040055;28;20040;-73
2021/12/01 00:47:13;;;;;;;6.40;2.10;;;;;;;8.02;100.00;99974.25;5012505;28;20029;-72
2021/12/01 00:49:40;;;;;;;2.95;1.90;;;;;;;7.99;100.00;99965.06;5036738;28;20037;-72
2021/12/01 00:52:05;;;;;;;4.30;1.67;;;;;;;8.10;100.00;99970.88;5028513;28;20087;-73
2021/12/01 00:54:32;;;;;;;3.80;1.85;;;;;;;8.07;100.00;99955.72;5033005;28;20443;-72
2021/12/01 00:56:57;;;;;;;3.20;2.00;;;;;;;8.03;100.00;99954.44;5032789;28;20025;-73
2021/12/01 00:59:23;;;;;;;2.83;1.80;;;;;;;8.05;100.00;99947.31;5041021;28;20392;-72
2021/12/01 01:01:48;;;;;;;2.05;1.40;;;;;;;8.07;100.00;99947.97;5028415;28;20126;-73
2021/12/01 01:04:14;;;;;;;3.20;2.08;;;;;;;8.02;100.00;99932.94;5023607;28;20365;-72
2021/12/01 01:06:41;;;;;;;3.78;1.80;;;;;;;8.02;100.00;99943.25;5023695;28;20072;-72
2021/12/01 01:09:07;;;;;;;2.22;1.90;;;;;;;8.08;99.55;99934.91;5033008;28;20041;-72
2021/12/01 01:17:10;;;;;;;3.58;1.85;;;;;;;8.14;98.93;99920.53;5029979;28;20041;-72
2021/12/01 01:19:37;;;;;;;2.85;1.80;;;;;;;8.01;99.18;99913.28;5019394;28;20037;-73
2021/12/01 01:22:05;;;;;;;3.47;1.70;;;;;;;8.12;98.88;99922.47;5027629;28;20033;-72
2021/12/01 01:24:31;;;;;;;3.13;2.13;;;;;;;8.13;98.75;99917.13;5027151;28;20033;-72
2021/12/01 01:26:57;;;;;;;4.07;1.60;;;;;;;8.08;99.04;99913.41;5029479;28;20029;-72
2021/12/01 01:29:24;;;;;;;3.75;1.63;;;;;;;8.02;99.28;99903.75;5027647;28;20037;-72
2021/12/01 01:31:53;;;;;;;3.90;2.10;;;;;;;8.07;98.86;99906.66;5028265;28;20026;-72
2021/12/01 01:34:19;;;;;;;5.47;1.73;;;;;;;8.04;99.19;99888.91;5027177;28;20041;-72
2021/12/01 01:36:44;;;;;;;3.40;1.58;;;;;;;8.01;99.21;99891.81;5029646;28;20033;-72
2021/12/01 01:39:10;;;;;;;3.35;1.73;;;;;;;7.95;99.21;99901.81;5028682;28;20028;-72
2021/12/01 01:41:35;;;;;;;2.55;1.45;;;;;;;7.97;98.71;99881.81;5009482;28;20483;-72
2021/12/01 01:44:01;;;;;;;2.25;1.75;;;;;;;8.00;98.37;99867.75;5030005;28;20025;-72
2021/12/01 01:46:32;;;;;;;4.25;1.80;;;;;;;7.99;98.61;99840.34;5033032;28;20502;-72
2021/12/01 01:49:05;;;;;;;2.53;1.88;;;;;;;8.02;98.05;99852.09;5033350;28;20570;-72
2021/12/01 01:51:32;;;;;;;4.85;1.70;;;;;;;7.98;97.50;99838.72;5030925;28;20029;-72
2021/12/01 01:53:58;;;;;;;2.97;2.00;;;;;;;8.02;97.52;99834.84;5027158;28;20037;-72
2021/12/01 01:56:26;;;;;;;2.03;1.40;;;;;;;8.03;97.36;99826.13;5027942;28;20097;-72
2021/12/01 01:58:53;;;;;;;3.22;1.75;;;;;;;7.97;97.67;99837.13;5026298;28;20041;-71
2021/12/01 02:03:57;;;;;;;2.38;1.50;;;;;;;7.94;97.17;99825.31;5028918;28;20026;-72
2021/12/01 02:06:23;;;;;;;2.85;1.50;;;;;;;7.96;97.18;99830.31;5024525;28;20025;-72
2021/12/01 02:08:54;;;;;;;5.50;1.90;;;;;;;7.95;97.21;99814.03;5027262;28;20037;-72
2021/12/01 02:11:21;;;;;;;2.47;1.58;;;;;;;7.91;97.16;99814.50;5014769;28;20033;-72
2021/12/01 02:13:48;;;;;;;2.22;1.75;;;;;;;7.90;97.06;99803.38;5022517;28;20021;-72
2021/12/01 02:16:15;;;;;;;3.80;2.45;;;;;;;7.86;97.19;99802.09;5028204;28;20057;-72
2021/12/01 02:18:42;;;;;;;4.00;2.63;;;;;;;7.96;96.82;99794.19;5034128;28;20033;-72
2021/12/01 02:21:12;;;;;;;4.15;2.35;;;;;;;7.97;96.19;99800.97;5029867;28;20033;-72
2021/12/01 02:23:49;;;;;;;4.32;2.40;;;;;;;7.88;96.42;99797.59;5037245;28;20025;-72
2021/12/01 02:26:17;;;;;;;2.67;2.08;;;;;;;7.88;96.10;99800.16;5031638;28;20036;-72
2021/12/01 02:28:44;;;;;;;3.70;2.58;;;;;;;7.86;96.12;99794.34;5028677;28;20087;-72
2021/12/01 02:31:11;;;;;;;3.45;2.55;;;;;;;7.93;95.48;99785.00;5033830;28;20037;-72
2021/12/01 02:33:36;;;;;;;4.35;2.83;;;;;;;7.96;95.26;99776.91;5031900;28;20040;-72
2021/12/01 02:36:02;;;;;;;3.65;2.60;;;;;;;7.93;94.92;99777.25;5028587;28;20022;-72
2021/12/01 02:38:28;;;;;;;4.88;2.53;;;;;;;7.92;94.91;99772.25;5029295;28;20033;-72
2021/12/01 02:40:54;;;;;;;5.07;3.05;;;;;;;7.89;94.86;99773.41;5027908;28;20079;-72
2021/12/01 02:43:24;;;;;;;4.28;3.38;;;;;;;7.84;94.44;99773.06;5032758;28;20684;-72
2021/12/01 02:45:51;;;;;;;5.10;3.28;;;;;;;7.92;93.99;99770.47;5033038;28;20373;-72
2021/12/01 02:48:17;;;;;;;5.78;4.05;;;;;;;7.85;94.26;99763.53;5012403;28;20484;-71
2021/12/01 02:50:43;;;;;;;4.45;3.50;;;;;;;7.93;93.53;99751.44;5029440;28;20040;-72
2021/12/01 02:53:09;;;;;;;5.43;3.80;;;;;;;7.80;93.87;99754.53;5012555;28;20040;-72
2021/12/01 02:55:40;;;;;;;8.65;3.92;;;;;;;7.89;93.56;99750.16;5027631;28;20040;-72
2021/12/01 02:58:06;;;;;;;6.85;3.92;;;;;;;7.90;92.46;99749.19;5030249;28;20037;-72
2021/12/01 03:00:32;;;;;;;12.50;4.00;;;;;;;7.86;92.37;99744.53;5040514;28;20041;-72
2021/12/01 03:02:58;;;;;;;7.75;4.30;;;;;;;7.90;92.20;99738.06;5030516;28;20630;-71
2021/12/01 03:05:23;;;;;;;9.15;4.70;;;;;;;7.87;91.78;99720.31;5016147;28;20447;-72
2021/12/01 03:07:49;;;;;;;8.32;4.68;;;;;;;7.94;91.36;99716.09;5029643;28;20492;-71
2021/12/01 03:10:15;;;;;;;9.48;4.53;;;;;;;7.89;91.67;99711.44;5013663;28;20506;-72
2021/12/01 03:12:41;;;;;;;7.43;4.72;;;;;;;7.88;92.14;99691.75;5034733;28;20033;-72
2021/12/01 03:15:10;;;;;;;7.53;4.15;;;;;;;7.88;92.08;99714.97;5032229;28;20053;-72
2021/12/01 03:17:35;;;;;;;10.07;5.05;;;;;;;7.81;92.32;99703.69;5013326;28;20538;-72
2021/12/01 03:20:03;;;;;;;12.88;6.03;;;;;;;7.80;92.60;99696.94;5021145;28;20053;-72
2021/12/01 03:22:28;;;;;;;7.40;4.90;;;;;;;7.83;92.61;99708.69;5033057;28;20029;-72
2021/12/01 03:24:55;;;;;;;18.13;5.57;;;;;;;7.80;92.61;99694.38;5038928;28;20082;-72
2021/12/01 03:27:21;;;;;;;9.20;6.30;;;;;;;7.74;93.11;99687.25;5031129;28;20029;-72
2021/12/01 03:29:50;;;;;;;11.20;6.25;;;;;;;7.71;93.31;99678.06;5031858;28;20040;-72
2021/12/01 03:32:16;;;;;;;10.80;6.03;;;;;;;7.66;94.45;99685.50;5029627;28;20037;-72
2021/12/01 03:34:43;;;;;;;8.85;6.03;;;;;;;7.54;94.93;99671.34;5033520;28;20412;-72
2021/12/01 03:37:10;;;;;;;11.02;6.90;;;;;;;7.52;95.53;99679.25;5035212;28;20053;-72
2021/12/01 03:39:36;;;;;;;13.70;7.30;;;;;;;7.50;96.09;99675.22;5031502;28;20033;-72
2021/12/01 03:42:02;;;;;;;10.55;6.68;;;;;;;7.41;96.87;99652.00;5036152;28;20495;-72
2021/12/01 03:44:27;;;;;;;10.77;7.47;;;;;;;7.51;96.45;99651.81;5027792;28;20029;-72
2021/12/01 03:46:53;;;;;;;13.02;7.25;;;;;;;7.48;96.54;99646.19;5037995;28;20480;-73
2021/12/01 03:49:19;;;;;;;12.90;7.53;;;;;;;7.37;97.14;99637.81;5040039;28;20067;-73
2021/12/01 03:51:45;;;;;;;13.30;8.32;;;;;;;7.35;97.21;99651.88;5035729;28;20039;-72
2021/12/01 03:54:10;;;;;;;11.70;6.95;;;;;;;7.34;97.04;99625.25;5020220;28;20033;-72
2021/12/01 03:56:36;;;;;;;11.93;7.22;;;;;;;7.34;97.47;99612.34;5038845;28;20395;-73
2021/12/01 03:59:03;;;;;;;11.07;7.47;;;;;;;7.32;97.44;99616.06;5028810;28;20032;-73
2021/12/01 04:01:29;;;;;;;16.40;7.78;;;;;;;7.27;97.33;99613.16;5029126;28;20056;-72
2021/12/01 04:03:54;;;;;;;11.13;6.57;;;;;;;7.25;97.60;99604.78;5033418;28;20035;-73
2021/12/01 04:06:20;;;;;;;11.32;7.97;;;;;;;7.28;97.12;99587.22;5038071;28;20029;-72
2021/12/01 04:08:47;;;;;;;11.75;7.80;;;;;;;7.15;97.43;99584.34;5033866;28;20060;-73
2021/12/01 04:11:12;;;;;;;11.05;6.25;;;;;;;7.20;97.54;99571.78;5037386;28;20506;-73
2021/12/01 04:13:38;;;;;;;9.25;6.18;;;;;;;7.17;97.41;99566.94;5036446;28;20029;-73
2021/12/01 04:16:04;;;;;;;10.90;6.10;;;;;;;7.14;97.68;99565.50;5031815;28;20027;-73
2021/12/01 04:18:29;;;;;;;11.13;6.30;;;;;;;7.17;97.14;99554.03;5037632;28;20083;-72
2021/12/01 04:20:55;;;;;;;10.88;5.90;;;;;;;7.20;97.11;99570.00;5030492;28;20115;-72
2021/12/01 04:23:20;;;;;;;7.90;5.38;;;;;;;7.13;96.83;99556.16;5009632;28;20025;-72
2021/12/01 04:25:46;;;;;;;10.00;5.22;;;;;;;7.16;96.39;99539.56;5015491;28;20403;-73
2021/12/01 04:28:12;;;;;;;10.45;6.13;;;;;;;7.06;96.71;99557.75;5028956;28;20029;-73
2021/12/01 04:30:37;;;;;;;9.15;5.43;;;;;;;7.14;96.44;99544.88;5038855;28;20028;-73
2021/12/01 04:33:03;;;;;;;11.00;6.10;;;;;;;7.14;96.00;99554.38;5016623;28;20496;-72
2021/12/01 04:35:29;;;;;;;12.27;6.35;;;;;;;7.08;95.72;99530.03;5017253;28;20425;-73
2021/12/01 04:37:55;;;;;;;9.25;5.72;;;;;;;7.16;95.99;99532.63;5031909;28;20029;-73
2021/12/01 04:40:21;;;;;;;12.77;5.78;;;;;;;7.12;95.56;99530.53;5034562;28;20436;-72
2021/12/01 04:42:47;;;;;;;13.02;5.70;;;;;;;7.11;94.91;99513.47;5020554;28;20040;-72
2021/12/01 04:45:14;;;;;;;9.88;4.97;;;;;;;7.13;94.25;99507.16;5034696;28;20037;-72
2021/12/01 04:47:51;;;;;;;8.82;4.35;;;;;;;7.12;94.03;99507.31;5036038;28;20488;-72
2021/12/01 04:50:20;;;;;;;8.70;5.60;;;;;;;7.08;94.18;99504.25;5028853;28;20391;-72
2021/12/01 04:52:46;;;;;;;8.57;4.57;;;;;;;7.22;93.50;99489.91;5031526;28;20029;-72
2021/12/01 04:55:12;;;;;;;6.63;4.13;;;;;;;7.08;93.52;99475.13;5034303;28;20032;-72
2021/12/01 04:57:40;;;;;;;7.70;4.55;;;;;;;7.13;92.67;99478.81;5027986;28;20108;-72
2021/12/01 05:00:08;;;;;;;5.00;3.40;;;;;;;7.15;92.49;99471.72;5035505;28;20424;-72
2021/12/01 05:02:33;;;;;;;7.55;3.85;;;;;;;7.27;92.23;99464.44;5030482;28;20472;-72
2021/12/01 05:04:58;;;;;;;7.28;3.80;;;;;;;7.25;91.38;99450.88;5023923;28;20097;-72
2021/12/01 05:07:25;;;;;;;9.35;4.22;;;;;;;7.25;91.34;99440.56;5031818;28;20068;-72
2021/12/01 05:09:51;;;;;;;5.70;4.00;;;;;;;7.19;91.32;99444.63;5034930;28;20036;-72
2021/12/01 05:12:17;;;;;;;6.10;3.50;;;;;;;7.25;91.22;99416.56;5026963;28;20037;-72
2021/12/01 05:14:42;;;;;;;4.88;3.25;;;;;;;7.25;90.48;99426.88;5029862;28;20064;-72
2021/12/01 05:17:08;;;;;;;4.93;3.30;;;;;;;7.23;90.78;99414.16;5031734;28;20508;-72
2021/12/01 05:19:35;;;;;;;4.78;3.05;;;;;;;7.22;90.35;99408.19;5033701;28;20025;-72
2021/12/01 05:22:02;;;;;;;4.25;3.15;;;;;;;7.23;90.81;99393.53;5029601;28;20645;-72
2021/12/01 05:24:27;;;;;;;3.67;2.65;;;;;;;7.24;90.62;99387.41;5026310;28;20025;-72
2021/12/01 05:26:53;;;;;;;5.63;3.22;;;;;;;7.27;90.20;99376.78;5030956;28;20395;-72
2021/12/01 05:29:20;;;;;;;5.65;2.85;;;;;;;7.21;90.24;99370.50;5011722;28;20475;-72
2021/12/01 05:31:46;;;;;;;4.60;2.50;;;;;;;7.21;90.43;99355.03;5032888;28;20048;-72
2021/12/01 05:34:11;;;;;;;5.80;2.42;;;;;;;7.22;90.36;99327.47;5027385;28;20030;-72
2021/12/01 05:36:37;;;;;;;6.07;2.58;;;;;;;7.30;89.55;99332.56;5013212;28;20643;-72
2021/12/01 05:39:03;;;;;;;4.97;2.35;;;;;;;7.26;89.59;99340.84;5029871;28;20045;-72
2021/12/01 05:41:28;;;;;;;5.75;2.85;;;;;;;7.18;90.78;99337.31;5035261;28;20044;-72
2021/12/01 05:43:54;;;;;;;3.70;1.90;;;;;;;7.18;90.38;99334.75;5032278;28;20029;-73
2021/12/01 05:46:20;;;;;;;3.65;2.17;;;;;;;7.24;90.67;99332.47;5035266;28;20026;-72
2021/12/01 05:48:45;;;;;;;2.92;1.95;;;;;;;7.25;90.11;99319.38;5019950;28;20732;-72
2021/12/01 05:51:11;;;;;;;8.60;2.65;;;;;;;7.31;90.14;99317.91;5038579;28;20063;-72
2021/12/01 05:53:36;;;;;;;2.60;2.00;;;;;;;7.32;90.02;99301.47;5029418;28;20022;-72
2021/12/01 05:56:03;;;;;;;3.33;2.13;;;;;;;7.19;90.35;99313.13;5025281;28;20037;-72
2021/12/01 05:58:29;;;;;;;6.97;2.50;;;;;;;7.25;90.07;99297.97;5027992;28;20409;-72
2021/12/01 06:00:54;;;;;;;7.10;2.60;;;;;;;7.28;89.73;99295.06;5012418;28;20040;-72
2021/12/01 06:03:20;;;;;;;2.92;1.92;;;;;;;7.29;89.44;99286.34;5027232;28;20112;-72
2021/12/01 06:05:45;;;;;;;7.60;2.10;;;;;;;7.28;89.85;99272.66;5030596;28;20287;-72
2021/12/01 06:08:11;;;;;;;6.63;2.15;;;;;;;7.36;89.75;99272.56;5026747;28;20503;-72
2021/12/01 06:10:40;;;;;;;4.32;1.80;;;;;;;7.29;89.90;99268.28;5030586;28;20104;-72
2021/12/01 06:13:06;;;;;;;3.88;2.20;;;;;;;7.23;90.34;99256.88;5033333;28;20148;-73
2021/12/01 06:15:32;;;;;;;6.05;3.05;;;;;;;7.46;88.96;99261.22;5035321;28;20206;-72
2021/12/01 06:17:59;;;;;;;3.42;1.70;;;;;;;7.29;89.69;99245.91;5032982;28;20040;-72
2021/12/01 06:20:26;;;;;;;7.85;2.20;;;;;;;7.33;89.51;99254.88;5037693;28;20025;-72
2021/12/01 06:22:52;;;;;;;3.53;2.15;;;;;;;7.39;89.37;99249.03;5034226;28;20054;-72
2021/12/01 06:25:18;;;;;;;5.82;2.10;;;;;;;7.48;88.60;99233.47;5037788;28;20067;-72
2021/12/01 06:27:44;;;;;;;5.70;2.17;;;;;;;7.42;89.06;99227.25;5028614;28;20153;-72
2021/12/01 06:30:11;;;;;;;2.55;1.70;;;;;;;7.39;89.29;99236.13;5015542;28;20447;-72
2021/12/01 06:32:37;;;;;;;5.70;1.80;;;;;;;7.38;90.06;99218.25;5034582;28;20057;-72
2021/12/01 06:35:03;;;;;;;6.57;2.17;;;;;;;7.30;90.46;99218.34;5039166;28;20063;-72
2021/12/01 06:37:29;;;;;;;3.38;1.60;;;;;;;7.26;90.66;99224.81;5025021;28;20036;-72
2021/12/01 06:39:54;;;;;;;2.97;1.90;;;;;;;7.35;89.79;99221.19;5042626;28;20213;-72
2021/12/01 06:42:20;;;;;;;3.88;2.00;;;;;;;7.30;90.24;99211.38;5032646;28;20420;-72
2021/12/01 06:44:45;;;;;;;2.33;1.58;;;;;;;7.30;90.12;99203.66;5028177;28;20036;-72
2021/12/01 06:47:11;;;;;;;3.25;1.70;;;;;;;7.40;89.93;99201.66;5034847;28;20041;-72
2021/12/01 06:49:36;;;;;;;3.22;1.63;;;;;;;7.43;89.56;99204.84;5035345;28;20531;-72
2021/12/01 06:52:02;;;;;;;6.30;1.70;;;;;;;7.33;89.93;99190.44;5033899;28;20037;-72
2021/12/01 06:54:28;;;;;;;2.30;1.48;;;;;;;7.36;90.01;99184.91;5027236;28;20033;-72
2021/12/01 06:56:53;;;;;;;1.85;1.30;;;;;;;7.26;90.81;99191.28;5032099;28;20033;-72
2021/12/01 06:59:19;;;;;;;2.40;1.20;;;;;;;7.38;90.52;99177.81;5028608;28;20079;-72
2021/12/01 07:01:44;;;;;;;3.33;1.02;;;;;;;7.38;90.34;99177.81;5029030;28;20485;-72
2021/12/01 07:04:12;;;;;;;3.95;1.70;;;;;;;7.40;90.44;99169.88;5025236;28;20029;-72
2021/12/01 07:06:37;;;;;;;2.15;1.23;;;;;;;7.38;90.44;99161.53;5037011;28;20032;-72
2021/12/01 07:09:03;;;;;;;1.52;1.15;;;;;;;7.37;90.77;99165.09;5015471;28;20057;-71
2021/12/01 07:11:29;;;;;;;1.58;1.00;;;;;;;7.38;90.94;99154.59;5035335;28;20033;-72
2021/12/01 07:13:54;;;;;;;1.95;1.38;;;;;;;7.33;91.08;99146.59;5032001;28;20340;-72
2021/12/01 07:16:20;;;;;;;2.53;1.10;;;;;;;7.29;91.55;99145.34;5032539;28;20061;-72
2021/12/01 07:18:45;;;;;;;1.20;0.77;;;;;;;7.43;90.83;99141.19;5014905;28;20472;-72
2021/12/01 07:21:11;;;;;;;0.82;0.77;;;;;;;7.40;90.88;99124.28;5038168;28;20032;-72
2021/12/01 07:23:38;;;;;;;1.20;0.98;;;;;;;7.33;91.39;99133.69;5029173;28;20041;-72
2021/12/01 07:26:04;;;;;;;3.60;1.27;;;;;;;7.32;91.47;99120.97;5037346;28;20133;-72
2021/12/01 07:28:30;;;;;;;2.03;0.90;;;;;;;7.38;91.46;99121.09;5030819;28;20109;-73
2021/12/01 07:30:56;;;;;;;1.40;0.95;;;;;;;7.36;91.00;99115.28;5029556;28;20390;-72
2021/12/01 07:33:23;;;;;;;0.90;0.77;;;;;;;7.42;91.47;99124.09;5026230;28;20040;-72
2021/12/01 07:35:50;;;;;;;0.85;0.63;;;;;;;7.43;91.01;99096.53;5033880;28;20056;-72
2021/12/01 07:38:15;;;;;;;2.53;0.60;;;;;;;7.35;91.30;99105.16;5027937;28;20029;-72
2021/12/01 07:40:41;;;;;;;2.22;0.70;;;;;;;7.44;91.25;99111.03;5016008;28;20028;-72
2021/12/01 07:43:06;;;;;;;1.10;0.75;;;;;;;7.43;91.66;99094.75;5032197;28;20115;-73
2021/12/01 07:45:32;;;;;;;1.15;0.60;;;;;;;7.40;91.64;99113.16;5037721;28;20037;-72
2021/12/01 07:47:58;;;;;;;2.10;0.60;;;;;;;7.32;92.56;99115.81;5033437;28;20036;-73
2021/12/01 07:50:23;;;;;;;1.00;0.65;;;;;;;7.41;92.47;99102.66;5023100;28;20032;-73
2021/12/01 07:52:49;;;;;;;1.77;0.70;;;;;;;7.38;92.38;99092.72;5018883;28;20554;-72
2021/12/01 07:55:14;;;;;;;2.38;0.80;;;;;;;7.30;92.76;99115.97;5012013;28;20026;-73
2021/12/01 07:57:40;;;;;;;2.55;1.42;;;;;;;7.32;92.91;99103.72;5027318;28;20021;-72
2021/12/01 08:00:06;;;;;;;2.05;1.20;;;;;;;7.35;93.26;99100.78;5021893;28;20518;-73
2021/12/01 08:02:32;;;;;;;1.20;0.63;;;;;;;7.34;93.33;99108.69;5034113;28;20041;-72
2021/12/01 08:04:58;;;;;;;1.27;0.73;;;;;;;7.40;93.50;99097.69;5018260;28;20087;-72
2021/12/01 08:07:24;;;;;;;1.23;0.50;;;;;;;7.40;93.29;99087.38;5045264;28;20031;-72
2021/12/01 08:09:50;;;;;;;2.90;0.70;;;;;;;7.44;93.23;99086.06;5033498;28;20037;-72
2021/12/01 08:12:15;;;;;;;1.20;0.77;;;;;;;7.44;92.99;99080.06;5034162;28;20102;-72
2021/12/01 08:14:41;;;;;;;1.33;0.70;;;;;;;7.45;93.34;99076.53;5036309;28;20036;-72
2021/12/01 08:17:07;;;;;;;1.52;0.43;;;;;;;7.34;93.74;99064.88;5028995;28;20431;-71
2021/12/01 08:19:32;;;;;;;0.52;0.45;;;;;;;7.40;93.50;99057.25;5029605;28;20029;-72
2021/12/01 08:21:58;;;;;;;4.22;0.60;;;;;;;7.40;93.44;99053.84;5032642;28;20040;-72
2021/12/01 08:24:24;;;;;;;0.50;0.40;;;;;;;7.39;93.88;99057.41;5030336;28;20030;-72
2021/12/01 08:26:50;;;;;;;0.60;0.50;;;;;;;7.43;93.93;99055.28;5028310;28;20030;-72
2021/12/01 08:29:16;;;;;;;0.60;0.52;;;;;;;7.38;94.49;99050.63;5027724;28;20037;-72
2021/12/01 08:31:41;;;;;;;0.57;0.40;;;;;;;7.35;94.51;99048.44;5028189;28;20515;-72
2021/12/01 08:34:10;;;;;;;1.40;0.50;;;;;;;7.37;94.60;99052.41;5027724;28;20025;-72
2021/12/01 08:36:36;;;;;;;0.57;0.50;;;;;;;7.41;94.06;99055.44;5028371;28;20492;-72
2021/12/01 08:39:03;;;;;;;1.67;0.40;;;;;;;7.47;93.67;99034.09;5026957;28;20038;-71
2021/12/01 08:41:29;;;;;;;1.08;0.40;;;;;;;7.51;93.86;99040.50;5028878;28;20051;-72
2021/12/01 08:43:54;;;;;;;1.02;0.63;;;;;;;7.51;93.47;99039.69;5027111;28;20492;-72
2021/12/01 08:46:19;;;;;;;0.95;0.50;;;;;;;7.53;93.53;99048.84;5031308;28;20032;-71
2021/12/01 08:48:47;;;;;;;1.30;0.60;;;;;;;7.57;93.25;99044.97;5045208;28;20041;-72
2021/12/01 08:51:12;;;;;;;0.47;0.40;;;;;;;7.52;93.17;99029.22;5035001;28;20033;-72
2021/12/01 08:53:42;;;;;;;4.07;0.73;;;;;;;7.55;93.83;99022.88;5036667;28;20067;-72
2021/12/01 08:56:08;;;;;;;0.38;0.30;;;;;;;7.60;93.12;99025.72;5029624;28;20052;-72
2021/12/01 08:58:34;;;;;;;0.63;0.40;;;;;;;7.62;92.83;99020.41;5033918;28;20126;-72
2021/12/01 09:01:00;;;;;;;0.68;0.32;;;;;;;7.65;92.94;99022.59;5030987;28;20480;-72
2021/12/01 09:03:26;;;;;;;0.60;0.60;;;;;;;7.63;93.63;99027.97;5045775;28;20112;-72
2021/12/01 09:05:53;;;;;;;0.60;0.43;;;;;;;7.61;93.82;99022.19;5036836;28;20029;-71
2021/12/01 09:08:21;;;;;;;0.98;0.50;;;;;;;7.54;94.64;99019.50;5029547;28;20051;-72
2021/12/01 09:10:48;;;;;;;0.50;0.30;;;;;;;7.63;94.31;99024.56;5030875;28;20033;-72
2021/12/01 09:13:16;;;;;;;1.13;0.52;;;;;;;7.59;94.47;99034.44;5037438;28;20032;-72
2021/12/01 09:15:42;;;;;;;0.50;0.40;;;;;;;7.64;94.17;99018.44;5031300;28;20045;-72
2021/12/01 09:18:08;;;;;;;0.98;0.40;;;;;;;7.64;94.83;99010.69;5034133;28;20037;-72
2021/12/01 09:20:33;;;;;;;2.13;0.40;;;;;;;7.55;95.59;99012.56;5030490;28;20036;-72
2021/12/01 09:23:00;;;;;;;1.38;0.30;;;;;;;7.49;96.15;99018.44;5034473;28;20051;-72
2021/12/01 09:25:26;;;;;;;2.33;0.40;;;;;;;7.53;95.89;99001.63;5033808;28;20354;-72
2021/12/01 09:27:51;;;;;;;2.72;0.63;;;;;;;7.56;95.98;98991.75;5030587;28;20120;-72
2021/12/01 09:30:18;;;;;;;0.93;0.30;;;;;;;7.60;96.01;98994.78;5032804;28;20076;-74
2021/12/01 09:32:44;;;;;;;0.40;0.30;;;;;;;7.62;95.28;98989.44;5040971;28;20114;-72
2021/12/01 09:35:11;;;;;;;0.35;0.30;;;;;;;7.70;95.08;98981.59;5031991;28;20040;-72
2021/12/01 09:37:38;;;;;;;0.65;0.40;;;;;;;7.74;95.13;98986.22;5032239;28;20037;-72
2021/12/01 09:40:13;;;;;;;1.73;0.17;;;;;;;7.69;95.34;98977.44;5034136;28;20026;-72
2021/12/01 09:42:41;;;;;;;0.32;0.30;;;;;;;7.78;95.17;98971.19;5030508;28;20119;-72
2021/12/01 09:45:07;;;;;;;0.25;0.25;;;;;;;7.74;94.97;98990.56;5035780;28;20133;-71
2021/12/01 09:47:33;;;;;;;1.15;0.20;;;;;;;7.75;94.91;98977.50;5032608;28;20100;-72
2021/12/01 09:49:59;;;;;;;0.57;0.30;;;;;;;7.79;95.14;98978.72;5029746;28;20026;-72
2021/12/01 09:52:24;;;;;;;0.57;0.30;;;;;;;7.73;95.98;98984.63;5028847;28;20041;-72
2021/12/01 09:54:50;;;;;;;2.58;0.40;;;;;;;7.81;95.37;98983.69;5013222;28;20032;-72
2021/12/01 09:57:15;;;;;;;0.30;0.30;;;;;;;7.80;95.88;98967.44;5026947;28;20025;-72
2021/12/01 09:59:42;;;;;;;0.90;0.30;;;;;;;7.85;96.08;98964.28;5012746;28;20392;-72
2021/12/01 10:02:10;;;;;;;1.95;0.20;;;;;;;7.80;96.23;98966.63;5025445;28;20044;-72
2021/12/01 10:04:35;;;;;;;2.17;0.20;;;;;;;7.77;96.19;98965.19;5026232;28;20246;-72
2021/12/01 10:07:13;;;;;;;1.60;0.60;;;;;;;7.85;95.87;98960.91;5009221;28;20400;-72
2021/12/01 10:09:50;;;;;;;0.77;0.50;;;;;;;7.82;95.90;98969.84;5029455;28;20036;-72
2021/12/01 10:12:16;;;;;;;0.98;0.52;;;;;;;7.81;95.90;98960.47;5041801;28;20051;-72
2021/12/01 10:14:47;;;;;;;0.88;0.38;;;;;;;7.87;95.87;98959.75;5027816;28;20528;-72
2021/12/01 10:17:15;;;;;;;0.95;0.38;;;;;;;7.92;95.75;98933.41;5031095;28;20111;-72
2021/12/01 10:19:40;;;;;;;0.38;0.30;;;;;;;7.92;96.00;98935.97;5017521;28;20045;-73
2021/12/01 10:22:12;;;;;;;1.45;0.32;;;;;;;8.01;96.10;98929.72;5014988;28;20024;-72
2021/12/01 10:24:39;;;;;;;1.00;0.30;;;;;;;7.97;96.02;98939.59;5015995;28;20134;-72
2021/12/01 10:27:11;;;;;;;0.32;0.30;;;;;;;7.92;96.83;98944.50;5033135;28;20031;-72
2021/12/01 10:29:43;;;;;;;0.57;0.40;;;;;;;7.94;96.97;98931.44;5043454;28;20119;-72
2021/12/01 10:32:09;;;;;;;0.60;0.38;;;;;;;7.95;96.77;98933.84;5037924;28;20041;-73
2021/12/01 10:34:36;;;;;;;1.85;0.47;;;;;;;8.00;96.37;98922.94;5036523;28;20120;-72
2021/12/01 10:37:29;;;;;;;1.40;0.50;;;;;;;8.04;96.77;98919.00;5026998;28;20049;-72
2021/12/01 10:40:08;;;;;;;0.30;0.30;;;;;;;8.02;97.23;98913.22;5029606;28;20039;-72
2021/12/01 10:42:49;;;;;;;0.95;0.43;;;;;;;7.97;97.77;98898.31;5041682;28;20530;-73
2021/12/01 10:45:17;;;;;;;2.35;0.40;;;;;;;7.92;97.75;98895.47;5017073;28;20033;-72
2021/12/01 10:47:44;;;;;;;0.50;0.40;;;;;;;8.03;97.36;98881.28;5024310;28;20021;-72
2021/12/01 10:50:12;;;;;;;4.20;0.50;;;;;;;8.00;97.23;98886.81;5025974;28;20037;-72
2021/12/01 10:52:42;;;;;;;3.55;0.57;;;;;;;8.01;97.47;98882.47;5029395;28;20124;-73
2021/12/01 10:55:21;;;;;;;0.60;0.40;;;;;;;8.05;97.54;98886.25;5026051;28;20037;-72
2021/12/01 10:57:55;;;;;;;0.57;0.47;;;;;;;8.15;96.94;98876.41;5026922;28;20025;-73
2021/12/01 11:00:22;;;;;;;1.02;0.50;;;;;;;8.18;96.73;98878.63;5029386;28;20472;-73
2021/12/01 11:02:48;;;;;;;2.63;0.70;;;;;;;8.19;96.95;98886.19;5028951;28;20052;-72
2021/12/01 11:05:31;;;;;;;0.65;0.50;;;;;;;8.21;96.64;98878.22;5026210;28;20057;-73
2021/12/01 11:08:08;;;;;;;;;;;;;;;8.18;97.47;98881.22;5031941;28;20112;-73
2021/12/01 11:10:34;;;;;;;1.55;0.60;;;;;;;8.09;97.99;98887.50;5013999;28;19913;-73
2021/12/01 11:13:02;;;;;;;1.05;0.60;;;;;;;8.04;98.67;98884.66;5016743;28;20043;-74
2021/12/01 11:15:31;;;;;;;1.08;0.80;;;;;;;8.13;98.68;98883.53;5027698;28;20127;-74
2021/12/01 11:17:58;;;;;;;1.38;0.80;;;;;;;8.05;98.69;98894.81;5045010;28;20045;-74
2021/12/01 11:20:45;;;;;;;2.20;0.80;;;;;;;7.94;99.04;98877.22;5035504;28;20037;-75
2021/12/01 11:23:17;;;;;;;4.35;0.82;;;;;;;8.01;99.42;98885.03;5037402;28;20033;-74
2021/12/01 11:25:50;;;;;;;1.45;0.70;;;;;;;8.06;99.65;98887.84;5032587;28;20040;-74
2021/12/01 11:28:18;;;;;;;1.27;0.70;;;;;;;8.06;99.14;98890.44;5014044;28;20404;-74
2021/12/01 11:30:47;;;;;;;2.63;0.80;;;;;;;7.95;99.22;98878.84;5030223;28;20084;-73
2021/12/01 11:33:16;;;;;;;1.05;0.75;;;;;;;7.99;98.60;98885.22;5029352;28;20058;-74
2021/12/01 11:35:44;;;;;;;3.67;1.00;;;;;;;7.93;97.50;98893.69;5009570;28;20049;-73
2021/12/01 11:38:11;;;;;;;8.07;1.20;;;;;;;7.93;97.29;98886.75;5031721;28;20075;-74
2021/12/01 11:40:37;;;;;;;7.75;1.45;;;;;;;8.01;97.38;98890.22;5012934;28;20083;-73
2021/12/01 11:43:04;;;;;;;1.42;0.98;;;;;;;7.96;97.65;98894.13;5030719;28;20072;-73
2021/12/01 11:45:30;;;;;;;5.32;1.33;;;;;;;7.98;97.29;98902.47;5026737;28;20133;-73